Terminal Aerodrome Forecast
Issued by NWS Sioux Falls, SD

Home | Current Version | Previous Version | Text Only | Print | Product List | Glossary On
Versions: 1 2 3 4 5 6 7 8 9 10 11 12 13 14 15 16 17 18
456
FTUS43 KFSD 211126
TAFFSD
TAF
KFSD 211126Z 2112/2212 03006KT P6SM SCT060 OVC150
     FM211600 03012KT P6SM OVC070
     FM212100 03015G23KT P6SM OVC035
     FM220000 03015G24KT P6SM VCSH BKN025
     FM220300 02017G28KT 1SM -SN BLSN OVC015=

USA.gov is the U.S. government's official web portal to all federal, state and local government web resources and services.